Station Historical Data
Daily Summary for October 29, 2017 Units:  English    Metric   Both
« Previous Day
Next Day »
Daily Weekly Monthly Yearly Custom
  High: Low: Average:
Temperature: 41.0 °F 33.3 °F 38.1 °F
Dew Point: 37.7 °F 29.6 °F 32.2 °F
Humidity: 88% 67% 80%
Wind Speed: 10.4mph 0.0mph 1.6mph
Wind Gust: 10.4mph - -
Wind- - WSW
Pressure: 29.95 in 29.80 in -
Precipitation: 0.00 in    
Historical Graphs
 
 
Tabular Data for October 29, 2017
Time Temperature Dew Point Pressure Wind Wind Speed Wind Gust Humidity Rainfall Rate (Hourly) Conditions
00:02 40.9 °F 37.6 °F 29.84 in ENE 1.2 mph 1.2 mph 88% 0.00 in OVC
00:07 41.0 °F 37.7 °F 29.84 in SSW 2.0 mph 2.0 mph 88% 0.00 in OVC
00:12 40.9 °F 37.6 °F 29.84 in ESE 2.3 mph 2.3 mph 88% 0.00 in OVC
00:17 41.0 °F 37.7 °F 29.84 in SW 3.5 mph 3.5 mph 88% 0.00 in OVC
00:22 40.9 °F 37.3 °F 29.84 in West 1.2 mph 1.2 mph 87% 0.00 in OVC
00:28 40.9 °F 37.3 °F 29.84 in WSW 5.8 mph 5.8 mph 87% 0.00 in OVC
00:33 40.8 °F 37.2 °F 29.83 in West 3.5 mph   87% 0.00 in OVC
00:38 40.9 °F 37.3 °F 29.83 in WNW 2.3 mph 2.3 mph 87% 0.00 in OVC
00:42 40.8 °F 36.9 °F 29.83 in SW 2.0 mph 2.0 mph 86% 0.00 in OVC
00:48 40.8 °F 37.2 °F 29.83 in WNW 2.3 mph 2.3 mph 87% 0.00 in OVC
00:53 40.8 °F 37.2 °F 29.82 in WNW 2.3 mph 2.3 mph 87% 0.00 in OVC
00:58 40.7 °F 36.8 °F 29.82 in SW 5.8 mph 5.8 mph 86% 0.00 in OVC
01:03 40.7 °F 36.8 °F 29.82 in West 1.2 mph 1.2 mph 86% 0.00 in OVC
01:08 40.6 °F 36.7 °F 29.82 in NW 3.5 mph 3.5 mph 86% 0.00 in OVC
01:13 40.5 °F 36.9 °F 29.82 in West 1.2 mph 1.2 mph 87% 0.00 in OVC
01:18 40.3 °F 36.7 °F 29.82 in NW 3.5 mph 3.5 mph 87% 0.00 in OVC
01:23 40.2 °F 36.3 °F 29.82 in Calm     86% 0.00 in OVC
01:28 40.1 °F 36.5 °F 29.82 in East 4.1 mph 4.1 mph 87% 0.00 in OVC
01:33 40.1 °F 36.2 °F 29.82 in East 3.5 mph 3.5 mph 86% 0.00 in OVC
01:38 40.0 °F 36.2 °F 29.82 in WNW 2.3 mph 2.3 mph 86% 0.00 in OVC
01:43 40.0 °F 36.4 °F 29.82 in West 1.0 mph 1.0 mph 87% 0.00 in OVC
01:49 39.8 °F 36.2 °F 29.81 in WNW 3.1 mph 3.1 mph 87% 0.00 in OVC
01:54 39.7 °F 35.9 °F 29.81 in WNW 1.2 mph   86% 0.00 in OVC
01:59 39.7 °F 35.9 °F 29.81 in West 1.0 mph   86% 0.00 in OVC
02:04 39.6 °F 35.8 °F 29.81 in WNW 2.3 mph 2.3 mph 86% 0.00 in OVC
02:09 39.7 °F 36.1 °F 29.81 in NW 3.5 mph 3.5 mph 87% 0.00 in OVC
02:14 39.7 °F 35.9 °F 29.81 in WNW 3.5 mph 3.5 mph 86% 0.00 in OVC
02:19 39.9 °F 36.1 °F 29.81 in SW 4.6 mph 4.6 mph 86% 0.00 in OVC
02:24 40.0 °F 36.2 °F 29.81 in West 1.2 mph 1.2 mph 86% 0.00 in OVC
02:29 40.1 °F 36.0 °F 29.81 in WNW 2.3 mph 2.3 mph 85% 0.00 in OVC
02:35 40.1 °F 36.3 °F 29.81 in Calm   2.0 mph 86% 0.00 in OVC
02:40 40.1 °F 36.0 °F 29.81 in WNW 1.0 mph 5.0 mph 85% 0.00 in OVC
02:45 40.2 °F 36.1 °F 29.81 in WSW 1.0 mph 5.0 mph 85% 0.00 in OVC
02:50 40.3 °F 36.1 °F 29.82 in Calm   5.0 mph 85% 0.00 in OVC
03:00 40.3 °F 36.1 °F 29.81 in Calm   2.0 mph 85% 0.00 in OVC
03:05 40.3 °F 35.8 °F 29.81 in West 1.0 mph 5.0 mph 84% 0.00 in OVC
03:10 40.3 °F 36.1 °F 29.81 in Calm   2.0 mph 85% 0.00 in OVC
03:15 40.3 °F 36.5 °F 29.81 in Calm   2.0 mph 86% 0.00 in OVC
03:20 40.3 °F 35.8 °F 29.81 in WSW 1.0 mph 3.0 mph 84% 0.00 in OVC
03:25 40.3 °F 36.1 °F 29.81 in Calm   3.0 mph 85% 0.00 in OVC
03:30 40.3 °F 36.1 °F 29.81 in NE 2.3 mph 2.3 mph 85% 0.00 in OVC
03:35 40.2 °F 36.1 °F 29.81 in WNW 1.0 mph 2.0 mph 85% 0.00 in OVC
03:40 40.1 °F 36.0 °F 29.81 in Calm   2.0 mph 85% 0.00 in OVC
03:45 40.1 °F 36.0 °F 29.81 in Calm   5.0 mph 85% 0.00 in OVC
03:50 40.0 °F 35.6 °F 29.81 in West 1.0 mph 3.0 mph 84% 0.00 in OVC
03:55 40.0 °F 35.6 °F 29.81 in Calm   2.0 mph 84% 0.00 in OVC
04:00 39.9 °F 35.8 °F 29.81 in Calm     85% 0.00 in OVC
04:04 39.8 °F 35.4 °F 29.80 in SW 2.3 mph 2.3 mph 84% 0.00 in OVC
04:10 39.8 °F 35.7 °F 29.80 in Calm   3.0 mph 85% 0.00 in OVC
04:15 39.7 °F 35.6 °F 29.80 in Calm   3.0 mph 85% 0.00 in OVC
04:20 39.7 °F 35.6 °F 29.80 in Calm   3.0 mph 85% 0.00 in OVC
04:25 39.6 °F 35.2 °F 29.80 in NW 1.2 mph 1.2 mph 84% 0.00 in OVC
04:30 39.6 °F 35.5 °F 29.80 in West 1.0 mph 5.0 mph 85% 0.00 in OVC
04:35 39.5 °F 35.4 °F 29.80 in West 1.0 mph 3.0 mph 85% 0.00 in OVC
04:40 39.5 °F 35.0 °F 29.80 in WSW 1.0 mph 3.0 mph 84% 0.00 in OVC
04:45 39.3 °F 34.6 °F 29.80 in Calm   5.0 mph 83% 0.00 in OVC
04:50 39.2 °F 34.5 °F 29.80 in Calm   5.0 mph 83% 0.00 in OVC
04:55 39.2 °F 34.4 °F 29.80 in Calm   2.0 mph 83% 0.00 in OVC
05:00 39.1 °F 34.7 °F 29.80 in Calm   3.0 mph 84% 0.00 in OVC
05:05 39.1 °F 34.4 °F 29.80 in WSW 1.0 mph 6.0 mph 83% 0.00 in OVC
05:10 38.9 °F 34.2 °F 29.80 in SW 1.0 mph 5.0 mph 83% 0.00 in OVC
05:15 38.9 °F 34.5 °F 29.80 in Calm   2.0 mph 84% 0.00 in OVC
05:20 38.9 °F 34.4 °F 29.80 in Calm   2.0 mph 84% 0.00 in OVC
05:25 38.8 °F 34.4 °F 29.80 in West 1.0 mph 5.0 mph 84% 0.00 in OVC
05:30 38.7 °F 34.3 °F 29.80 in SW 2.3 mph 2.3 mph 84% 0.00 in OVC
05:35 38.6 °F 34.2 °F 29.80 in Calm   3.0 mph 84% 0.00 in OVC
05:40 38.6 °F 34.2 °F 29.80 in Calm   5.0 mph 84% 0.00 in OVC
05:45 38.6 °F 34.2 °F 29.80 in WNW 1.0 mph 3.0 mph 84% 0.00 in OVC
05:50 38.5 °F 34.1 °F 29.80 in Calm   3.0 mph 84% 0.00 in OVC
05:55 38.4 °F 33.7 °F 29.80 in Calm   2.0 mph 83% 0.00 in OVC
06:00 38.5 °F 33.8 °F 29.80 in WNW 4.6 mph 4.6 mph 83% 0.00 in OVC
06:05 38.4 °F 34.0 °F 29.80 in Calm   5.0 mph 84% 0.00 in OVC
06:10 38.4 °F 34.0 °F 29.80 in WNW 1.0 mph 2.0 mph 84% 0.00 in OVC
06:15 38.4 °F 34.0 °F 29.80 in Calm   3.0 mph 84% 0.00 in OVC
06:20 38.3 °F 33.6 °F 29.80 in Calm   3.0 mph 83% 0.00 in OVC
06:25 38.3 °F 33.6 °F 29.80 in Calm     83% 0.00 in OVC
06:29 38.3 °F 33.6 °F 29.80 in East 4.6 mph 4.6 mph 83% 0.00 in OVC
06:35 38.1 °F 33.4 °F 29.80 in South 6.1 mph 6.1 mph 83% 0.00 in OVC
06:40 38.1 °F 33.4 °F 29.80 in Calm   6.0 mph 83% 0.00 in OVC
06:45 38.1 °F 33.4 °F 29.80 in Calm   2.0 mph 83% 0.00 in OVC
06:50 38.0 °F 33.3 °F 29.80 in WSW 1.0 mph 2.0 mph 83% 0.00 in OVC
06:55 38.0 °F 33.3 °F 29.81 in NW 1.2 mph 1.2 mph 83% 0.00 in OVC
07:00 37.9 °F 33.2 °F 29.80 in Calm   3.0 mph 83% 0.00 in OVC
07:05 37.9 °F 32.9 °F 29.81 in NW 1.0 mph 3.0 mph 82% 0.00 in OVC
07:10 37.8 °F 32.5 °F 29.81 in Calm   5.0 mph 81% 0.00 in OVC
07:15 37.8 °F 32.8 °F 29.80 in WNW 1.0 mph 3.0 mph 82% 0.00 in OVC
07:20 37.7 °F 32.4 °F 29.81 in NW 1.2 mph 1.2 mph 81% 0.00 in OVC
07:24 37.7 °F 32.4 °F 29.81 in SSW 2.3 mph 2.3 mph 81% 0.00 in OVC
07:30 37.7 °F 32.7 °F 29.81 in WSW 1.0 mph 3.0 mph 82% 0.00 in OVC
07:35 37.6 °F 32.6 °F 29.81 in Calm   5.0 mph 82% 0.00 in OVC
07:40 37.6 °F 32.6 °F 29.81 in WNW 1.0 mph 5.0 mph 82% 0.00 in OVC
07:45 37.6 °F 32.6 °F 29.81 in NNW 1.0 mph 3.0 mph 82% 0.00 in OVC
07:50 37.6 °F 32.6 °F 29.81 in WNW 2.3 mph 2.3 mph 82% 0.00 in OVC
07:55 37.6 °F 32.6 °F 29.82 in West 1.0 mph 5.0 mph 82% 0.00 in OVC
08:00 37.5 °F 32.2 °F 29.82 in Calm   6.0 mph 81% 0.00 in OVC
08:05 37.5 °F 32.2 °F 29.82 in WSW 2.0 mph 8.0 mph 81% 0.00 in OVC
08:10 37.4 °F 32.1 °F 29.82 in WSW 2.3 mph 2.3 mph 81% 0.00 in OVC
08:15 37.4 °F 31.8 °F 29.82 in Calm   3.0 mph 80% 0.00 in OVC
08:20 37.3 °F 31.7 °F 29.83 in WSW 1.0 mph 5.0 mph 80% 0.00 in OVC
08:25 37.3 °F 31.7 °F 29.83 in SW 1.0 mph 6.0 mph 80% 0.00 in OVC
08:30 37.3 °F 32.0 °F 29.83 in WSW 2.0 mph 2.0 mph 81% 0.00 in OVC
08:35 37.2 °F 31.9 °F 29.83 in West 1.0 mph 5.0 mph 81% 0.00 in OVC
08:40 37.2 °F 31.9 °F 29.83 in Calm   2.0 mph 81% 0.00 in OVC
08:45 37.2 °F 31.9 °F 29.83 in Calm   5.0 mph 81% 0.00 in OVC
08:50 37.1 °F 31.5 °F 29.84 in SW 6.1 mph 6.1 mph 80% 0.00 in OVC
08:55 37.1 °F 31.5 °F 29.84 in West 2.3 mph 2.3 mph 80% 0.00 in OVC
09:00 37.1 °F 31.5 °F 29.84 in East 1.2 mph 1.2 mph 80% 0.00 in OVC
09:05 37.0 °F 31.4 °F 29.84 in SSW 2.0 mph 2.0 mph 80% 0.00 in OVC
09:10 37.1 °F 31.5 °F 29.85 in SW 3.1 mph 3.1 mph 80% 0.00 in OVC
09:16 37.0 °F 31.1 °F 29.84 in West 2.3 mph 2.3 mph 79% 0.00 in OVC
09:21 37.0 °F 31.1 °F 29.85 in SW 4.6 mph 4.6 mph 79% 0.00 in OVC
09:26 37.0 °F 31.4 °F 29.85 in NW 1.2 mph 1.2 mph 80% 0.00 in OVC
09:31 37.1 °F 31.2 °F 29.86 in East 2.0 mph 2.0 mph 79% 0.00 in OVC
09:36 37.2 °F 31.9 °F 29.86 in NNW 1.2 mph 1.2 mph 81% 0.00 in OVC
09:41 37.1 °F 31.2 °F 29.86 in North 2.3 mph 2.3 mph 79% 0.00 in OVC
09:46 37.1 °F 30.9 °F 29.86 in SSW 2.3 mph 2.3 mph 78% 0.00 in OVC
09:52 37.1 °F 31.2 °F 29.86 in West 3.5 mph 3.5 mph 79% 0.00 in OVC
09:57 37.1 °F 30.9 °F 29.86 in West 3.5 mph 3.5 mph 78% 0.00 in OVC
10:02 37.2 °F 31.0 °F 29.86 in WNW 1.2 mph 1.2 mph 78% 0.00 in OVC
10:07 37.2 °F 31.0 °F 29.86 in West 2.3 mph 2.3 mph 78% 0.00 in OVC
10:12 37.2 °F 31.0 °F 29.86 in West 3.5 mph 3.5 mph 78% 0.00 in OVC
10:17 37.2 °F 30.7 °F 29.86 in NE 3.5 mph 3.5 mph 77% 0.00 in OVC
10:21 37.2 °F 31.0 °F 29.86 in West 2.3 mph 2.3 mph 78% 0.00 in OVC
10:26 37.3 °F 31.1 °F 29.87 in WNW 3.5 mph 3.5 mph 78% 0.00 in OVC
10:31 37.4 °F 31.5 °F 29.87 in West 1.2 mph 1.2 mph 79% 0.00 in OVC
10:36 37.5 °F 31.3 °F 29.87 in WNW 3.5 mph 3.5 mph 78% 0.00 in OVC
10:41 37.5 °F 30.6 °F 29.87 in SE 2.3 mph 2.3 mph 76% 0.00 in OVC
10:46 37.5 °F 31.3 °F 29.87 in West 3.5 mph 3.5 mph 78% 0.00 in OVC
10:51 37.6 °F 30.7 °F 29.87 in South 10.4 mph 10.4 mph 76% 0.00 in OVC
10:56 37.5 °F 30.9 °F 29.87 in South 1.2 mph   77% 0.00 in OVC
11:01 37.6 °F 31.0 °F 29.87 in East 6.9 mph 6.9 mph 77% 0.00 in OVC
11:07 37.6 °F 31.0 °F 29.87 in SW 4.6 mph 4.6 mph 77% 0.00 in OVC
11:12 37.6 °F 30.4 °F 29.88 in SSW 5.8 mph 5.8 mph 75% 0.00 in OVC
11:17 37.6 °F 30.7 °F 29.88 in West 2.3 mph 2.3 mph 76% 0.00 in OVC
11:22 37.5 °F 30.3 °F 29.87 in WNW 1.2 mph   75% 0.00 in OVC
11:27 37.6 °F 30.4 °F 29.88 in West 3.5 mph 3.5 mph 75% 0.00 in OVC
11:32 37.6 °F 30.4 °F 29.88 in SSW 4.6 mph 4.6 mph 75% 0.00 in OVC
11:37 37.6 °F 30.1 °F 29.88 in West 3.5 mph 3.5 mph 74% 0.00 in OVC
11:42 37.6 °F 30.1 °F 29.88 in WSW 5.8 mph 5.8 mph 74% 0.00 in OVC
11:48 37.7 °F 30.2 °F 29.88 in WNW 4.6 mph 4.6 mph 74% 0.00 in OVC
11:49 37.8 °F 30.3 °F 29.88 in East 4.6 mph 4.6 mph 74% 0.00 in OVC
11:54 37.7 °F 29.8 °F 29.88 in SW 3.5 mph 3.5 mph 73% 0.00 in OVC
11:55 37.8 °F 29.9 °F 29.88 in WSW 2.3 mph 2.3 mph 73% 0.00 in OVC
12:00 37.9 °F 30.7 °F 29.88 in WNW 2.3 mph 2.3 mph 75% 0.00 in OVC
12:05 38.1 °F 30.9 °F 29.88 in West 1.2 mph 1.2 mph 75% 0.00 in OVC
12:10 38.2 °F 30.3 °F 29.88 in NNW 2.3 mph 2.3 mph 73% 0.00 in OVC
12:15 38.3 °F 30.7 °F 29.88 in WSW 2.3 mph 2.3 mph 74% 0.00 in OVC
12:20 38.3 °F 30.4 °F 29.88 in NNE 2.3 mph 2.3 mph 73% 0.00 in OVC
12:25 38.4 °F 30.5 °F 29.88 in WNW 5.8 mph 5.8 mph 73% 0.00 in OVC
12:31 38.5 °F 30.9 °F 29.88 in WNW 1.2 mph 1.2 mph 74% 0.00 in OVC
12:36 38.5 °F 30.6 °F 29.88 in West 3.5 mph 3.5 mph 73% 0.00 in OVC
12:41 38.5 °F 30.6 °F 29.88 in SW 1.2 mph 1.2 mph 73% 0.00 in OVC
12:46 38.7 °F 31.1 °F 29.88 in South 3.5 mph 3.5 mph 74% 0.00 in OVC
12:51 38.6 °F 30.7 °F 29.88 in West 1.2 mph 1.2 mph 73% 0.00 in OVC
12:56 38.6 °F 30.7 °F 29.88 in SE 2.3 mph 2.3 mph 73% 0.00 in OVC
13:01 38.5 °F 30.9 °F 29.88 in NNW 5.8 mph 5.8 mph 74% 0.00 in OVC
13:06 38.7 °F 30.8 °F 29.88 in WNW 2.3 mph 2.3 mph 73% 0.00 in OVC
13:11 38.7 °F 30.8 °F 29.88 in WNW 2.3 mph 2.3 mph 73% 0.00 in OVC
13:16 38.7 °F 31.5 °F 29.88 in West 2.3 mph 2.3 mph 75% 0.00 in OVC
13:21 38.7 °F 31.5 °F 29.88 in West 1.0 mph 1.0 mph 75% 0.00 in OVC
13:27 38.7 °F 30.8 °F 29.88 in West 4.6 mph 4.6 mph 73% 0.00 in OVC
13:32 38.7 °F 30.4 °F 29.88 in ESE 4.6 mph 4.6 mph 72% 0.00 in OVC
13:37 38.7 °F 30.4 °F 29.88 in South 1.2 mph 1.2 mph 72% 0.00 in OVC
13:42 38.6 °F 30.7 °F 29.88 in WNW 2.3 mph 2.3 mph 73% 0.00 in OVC
13:47 38.6 °F 30.7 °F 29.87 in WNW 3.5 mph 3.5 mph 73% 0.00 in OVC
13:52 38.6 °F 30.4 °F 29.87 in West 2.3 mph 2.3 mph 72% 0.00 in OVC
13:57 38.6 °F 30.4 °F 29.87 in WNW 3.5 mph 3.5 mph 72% 0.00 in OVC
14:02 39.1 °F 31.2 °F 29.87 in WNW 3.5 mph 3.5 mph 73% 0.00 in OVC
14:07 39.3 °F 30.7 °F 29.87 in WSW 4.6 mph 4.6 mph 71% 0.00 in OVC
14:12 39.3 °F 30.7 °F 29.88 in NW 5.8 mph 5.8 mph 71% 0.00 in OVC
14:17 39.3 °F 30.7 °F 29.87 in ESE 2.3 mph 2.3 mph 71% 0.00 in OVC
14:23 39.2 °F 30.9 °F 29.87 in SW 1.2 mph 1.2 mph 72% 0.00 in OVC
14:28 39.2 °F 30.9 °F 29.87 in NW 4.6 mph 4.6 mph 72% 0.00 in OVC
14:33 39.1 °F 31.2 °F 29.87 in SSW 4.6 mph 4.6 mph 73% 0.00 in OVC
14:38 39.1 °F 31.5 °F 29.87 in West 2.3 mph 2.3 mph 74% 0.00 in OVC
14:43 39.3 °F 31.7 °F 29.88 in West 3.5 mph 3.5 mph 74% 0.00 in OVC
14:48 39.3 °F 31.7 °F 29.87 in SW 1.2 mph 1.2 mph 74% 0.00 in OVC
14:53 39.3 °F 31.7 °F 29.87 in NNW 1.2 mph 1.2 mph 74% 0.00 in OVC
14:58 39.2 °F 31.3 °F 29.87 in North 5.8 mph 5.8 mph 73% 0.00 in OVC
15:03 39.1 °F 31.2 °F 29.87 in SSW 4.6 mph 4.6 mph 73% 0.00 in OVC
15:08 38.9 °F 31.3 °F 29.87 in SSE 3.5 mph 3.5 mph 74% 0.00 in OVC
15:13 38.9 °F 31.3 °F 29.87 in SW 4.1 mph 4.1 mph 74% 0.00 in OVC
15:18 38.9 °F 31.6 °F 29.87 in West 1.2 mph 1.2 mph 75% 0.00 in OVC
15:24 39.0 °F 31.7 °F 29.87 in WNW 1.2 mph   75% 0.00 in OVC
15:29 38.9 °F 31.3 °F 29.87 in NW 2.3 mph 2.3 mph 74% 0.00 in OVC
15:34 39.0 °F 31.4 °F 29.88 in NNW 3.5 mph 3.5 mph 74% 0.00 in OVC
15:39 39.0 °F 31.4 °F 29.88 in SW 3.5 mph 3.5 mph 74% 0.00 in OVC
15:44 39.1 °F 31.5 °F 29.88 in NNW 2.3 mph 2.3 mph 74% 0.00 in OVC
15:49 39.2 °F 31.6 °F 29.88 in West 8.1 mph 8.1 mph 74% 0.00 in OVC
15:54 39.4 °F 31.8 °F 29.88 in North 3.5 mph 3.5 mph 74% 0.00 in OVC
15:59 39.7 °F 31.4 °F 29.88 in WSW 1.2 mph 1.2 mph 72% 0.00 in OVC
16:04 39.8 °F 31.5 °F 29.88 in West 3.5 mph 3.5 mph 72% 0.00 in OVC
16:10 39.8 °F 30.8 °F 29.88 in North 3.5 mph 3.5 mph 70% 0.00 in OVC
16:15 39.8 °F 31.2 °F 29.89 in WNW 1.0 mph 5.0 mph 71% 0.00 in OVC
16:20 39.9 °F 30.5 °F 29.89 in West 1.0 mph 5.0 mph 69% 0.00 in OVC
16:25 40.0 °F 31.0 °F 29.89 in Calm   2.0 mph 70% 0.00 in OVC
16:30 40.1 °F 30.7 °F 29.89 in Calm   5.0 mph 69% 0.00 in OVC
16:34 40.1 °F 31.1 °F 29.89 in WNW 1.2 mph 1.2 mph 70% 0.00 in OVC
16:39 40.2 °F 30.8 °F 29.89 in West 4.6 mph 4.6 mph 69% 0.00 in OVC
16:45 40.3 °F 30.9 °F 29.89 in Calm   6.0 mph 69% 0.00 in BKN
16:50 40.4 °F 30.7 °F 29.89 in WNW 1.0 mph 5.0 mph 68% 0.00 in BKN
16:55 40.5 °F 31.2 °F 29.89 in Calm   3.0 mph 69% 0.00 in BKN
17:00 40.6 °F 30.9 °F 29.89 in Calm   5.0 mph 68% 0.00 in BKN
17:05 40.8 °F 31.1 °F 29.89 in Calm   3.0 mph 68% 0.00 in BKN
17:10 41.0 °F 31.6 °F 29.89 in SSW 6.1 mph 6.1 mph 69% 0.00 in BKN
17:15 40.9 °F 30.8 °F 29.89 in WSW 2.0 mph 8.0 mph 67% 0.00 in BKN
17:20 40.6 °F 30.9 °F 29.90 in West 1.0 mph 3.0 mph 68% 0.00 in BKN
17:25 40.5 °F 31.8 °F 29.90 in Calm   5.0 mph 71% 0.00 in BKN
17:30 40.4 °F 31.4 °F 29.90 in Calm   5.0 mph 70% 0.00 in BKN
17:35 40.3 °F 30.9 °F 29.90 in SW 2.3 mph 2.3 mph 69% 0.00 in BKN
17:40 40.1 °F 31.1 °F 29.90 in South 4.6 mph 4.6 mph 70% 0.00 in BKN
17:45 39.9 °F 30.2 °F 29.90 in SW 4.6 mph 4.6 mph 68% 0.00 in BKN
17:50 39.8 °F 30.5 °F 29.90 in West 2.3 mph 2.3 mph 69% 0.00 in BKN
17:55 39.7 °F 30.7 °F 29.91 in Calm   0.1 mph 70% 0.00 in BKN
18:00 39.7 °F 30.7 °F 29.90 in West 2.0 mph 2.0 mph 70% 0.00 in BKN
18:05 39.6 °F 30.6 °F 29.91 in West 3.5 mph 3.5 mph 70% 0.00 in BKN
18:10 39.4 °F 30.8 °F 29.91 in WNW 2.3 mph 2.3 mph 71% 0.00 in BKN
18:15 39.3 °F 30.3 °F 29.91 in West 1.2 mph 1.2 mph 70% 0.00 in BKN
18:20 39.1 °F 30.8 °F 29.91 in West 1.2 mph   72% 0.00 in BKN
18:25 39.0 °F 30.7 °F 29.91 in West 1.2 mph   72% 0.00 in BKN
18:30 38.8 °F 30.9 °F 29.91 in NW 2.0 mph 2.0 mph 73% 0.00 in BKN
18:36 38.7 °F 30.4 °F 29.91 in NW 1.2 mph 1.2 mph 72% 0.00 in BKN
18:41 38.6 °F 30.7 °F 29.92 in Calm     73% 0.00 in BKN
18:46 38.5 °F 30.6 °F 29.92 in West 1.2 mph 1.2 mph 73% 0.00 in BKN
18:51 38.3 °F 30.7 °F 29.92 in Calm     74% 0.00 in BKN
18:56 38.1 °F 30.5 °F 29.92 in Calm     74% 0.00 in BKN
19:01 38.0 °F 30.4 °F 29.92 in West 1.2 mph   74% 0.00 in SCT
19:06 37.8 °F 30.9 °F 29.92 in Calm     76% 0.00 in SCT
19:11 37.7 °F 30.8 °F 29.92 in Calm     76% 0.00 in SCT
19:16 37.4 °F 30.8 °F 29.92 in Calm     77% 0.00 in SCT
19:21 37.3 °F 30.7 °F 29.92 in West 1.2 mph   77% 0.00 in SCT
19:27 37.2 °F 31.0 °F 29.92 in Calm     78% 0.00 in SCT
19:32 37.1 °F 30.9 °F 29.92 in WNW 1.2 mph   78% 0.00 in SCT
19:37 37.0 °F 30.5 °F 29.92 in Calm     77% 0.00 in SCT
19:42 36.9 °F 30.7 °F 29.92 in Calm     78% 0.00 in SCT
19:47 36.8 °F 30.9 °F 29.92 in Calm     79% 0.00 in SCT
19:52 36.8 °F 30.9 °F 29.92 in WNW 1.0 mph   79% 0.00 in SCT
19:57 36.7 °F 31.1 °F 29.92 in Calm     80% 0.00 in SCT
20:02 36.5 °F 30.6 °F 29.92 in Calm     79% 0.00 in SCT
20:07 36.4 °F 30.8 °F 29.92 in Calm     80% 0.00 in SCT
20:12 36.3 °F 31.0 °F 29.92 in Calm     81% 0.00 in SCT
20:17 36.1 °F 30.8 °F 29.92 in Calm     81% 0.00 in SCT
20:22 35.9 °F 30.9 °F 29.92 in Calm     82% 0.00 in FEW
20:27 35.8 °F 30.8 °F 29.92 in Calm     82% 0.00 in FEW
20:32 35.7 °F 30.7 °F 29.92 in Calm     82% 0.00 in FEW
20:38 35.5 °F 30.5 °F 29.92 in Calm     82% 0.00 in FEW
20:43 35.4 °F 30.8 °F 29.92 in Calm     83% 0.00 in FEW
20:48 35.3 °F 30.7 °F 29.92 in Calm     83% 0.00 in FEW
20:53 35.2 °F 30.9 °F 29.92 in Calm     84% 0.00 in FEW
20:58 35.1 °F 30.5 °F 29.92 in Calm     83% 0.00 in FEW
21:03 35.0 °F 30.7 °F 29.92 in Calm     84% 0.00 in FEW
21:08 34.9 °F 30.6 °F 29.92 in Calm     84% 0.00 in FEW
21:13 34.8 °F 30.5 °F 29.92 in Calm     84% 0.00 in FEW
21:18 34.7 °F 30.7 °F 29.92 in Calm     85% 0.00 in FEW
21:23 34.6 °F 30.6 °F 29.92 in Calm     85% 0.00 in CLR
21:28 34.5 °F 30.5 °F 29.92 in Calm     85% 0.00 in CLR
21:33 34.4 °F 30.4 °F 29.93 in Calm     85% 0.00 in CLR
21:39 34.3 °F 30.3 °F 29.93 in Calm     85% 0.00 in CLR
21:44 34.2 °F 30.2 °F 29.93 in Calm     85% 0.00 in CLR
21:49 34.1 °F 30.1 °F 29.93 in Calm     85% 0.00 in CLR
21:54 34.1 °F 30.4 °F 29.92 in Calm     86% 0.00 in CLR
21:59 34.0 °F 30.3 °F 29.92 in Calm     86% 0.00 in CLR
22:04 33.9 °F 30.2 °F 29.92 in Calm     86% 0.00 in CLR
22:09 33.9 °F 30.2 °F 29.92 in Calm     86% 0.00 in CLR
22:14 33.9 °F 30.2 °F 29.92 in Calm     86% 0.00 in CLR
22:20 33.9 °F 30.2 °F 29.92 in Calm     86% 0.00 in CLR
22:25 34.0 °F 30.2 °F 29.92 in Calm     86% 0.00 in CLR
22:30 33.9 °F 29.9 °F 29.92 in Calm     85% 0.00 in CLR
22:35 33.9 °F 30.2 °F 29.93 in Calm     86% 0.00 in CLR
22:40 33.9 °F 30.2 °F 29.93 in Calm     86% 0.00 in CLR
22:45 33.9 °F 30.2 °F 29.93 in Calm     86% 0.00 in CLR
22:50 33.8 °F 30.1 °F 29.94 in Calm     86% 0.00 in CLR
22:55 33.8 °F 30.1 °F 29.94 in Calm     86% 0.00 in CLR
23:00 33.7 °F 30.0 °F 29.94 in Calm     86% 0.00 in CLR
23:11 33.5 °F 29.8 °F 29.94 in Calm     86% 0.00 in CLR
23:16 33.4 °F 29.7 °F 29.94 in Calm     86% 0.00 in CLR
23:21 33.3 °F 29.6 °F 29.94 in Calm     86% 0.00 in CLR
23:22 33.3 °F 29.6 °F 29.94 in Calm     86% 0.00 in CLR
23:23 33.3 °F 29.6 °F 29.94 in Calm     86% 0.00 in CLR
23:25 33.3 °F 29.6 °F 29.94 in Calm     86% 0.00 in CLR
23:30 33.3 °F 29.6 °F 29.94 in Calm     86% 0.00 in CLR
23:35 33.3 °F 29.6 °F 29.94 in Calm   0.2 mph 86% 0.00 in CLR
23:41 33.4 °F 29.7 °F 29.95 in Calm     86% 0.00 in CLR
23:46 33.4 °F 29.7 °F 29.95 in Calm     86% 0.00 in CLR
23:51 33.4 °F 29.7 °F 29.95 in Calm     86% 0.00 in CLR
23:56 33.4 °F 29.7 °F 29.95 in Calm     86% 0.00 in CLR
Piedmont Bend
Compliments of Weather Underground - 2 mb